Fuerteventura (La Oliva), Spain
Current Conditions -  °F | °C
As of 11:00 PM on Saturday 20 Dec 2014 (Local Time) from GCFV Reporting Station
Scattered Clouds Scattered Clouds  
Wind Chill: 18°   Ceiling: Unl
Heat Index: 18°   Visibility: 6mi
Dew Point: 16°   Wind: 17mph
Humidity: 88%   Direction: 40°NE
Pressure: 30.33"   Gusts: NA
Location:  28.6°N, 13.93°W
Report Text: GCFV 202300Z 04015KT 9999 SCT015 18/16 Q1027
Loading
Personal Weather Stations






























Interactive Weather Map New forecast layout! Learn more

10-Day Weather Forecast

Advertisements
Track Severe Weather on mobile